sensor_id;sensor_type;location;lat;lon;timestamp;temperature;humidity
78516;SHT31;67815;51.990;5.688;2023-05-19T00:00:02;13.3;56.5
78516;SHT31;67815;51.990;5.688;2023-05-19T00:02:34;13.3;56.5
78516;SHT31;67815;51.990;5.688;2023-05-19T00:05:06;13.2;56.7
78516;SHT31;67815;51.990;5.688;2023-05-19T00:07:37;13.2;56.9
78516;SHT31;67815;51.990;5.688;2023-05-19T00:10:11;13.2;56.7
78516;SHT31;67815;51.990;5.688;2023-05-19T00:12:42;13.1;56.7
78516;SHT31;67815;51.990;5.688;2023-05-19T00:15:13;13.1;56.9
78516;SHT31;67815;51.990;5.688;2023-05-19T00:17:43;13.0;57.0
78516;SHT31;67815;51.990;5.688;2023-05-19T00:20:14;13.0;57.0
78516;SHT31;67815;51.990;5.688;2023-05-19T00:22:44;13.0;57.3
78516;SHT31;67815;51.990;5.688;2023-05-19T00:25:14;12.9;57.4
78516;SHT31;67815;51.990;5.688;2023-05-19T00:27:44;12.9;57.6
78516;SHT31;67815;51.990;5.688;2023-05-19T00:30:14;12.9;57.8
78516;SHT31;67815;51.990;5.688;2023-05-19T00:32:44;12.8;57.8
78516;SHT31;67815;51.990;5.688;2023-05-19T00:35:14;12.8;57.9
78516;SHT31;67815;51.990;5.688;2023-05-19T00:37:44;12.8;58.1
78516;SHT31;67815;51.990;5.688;2023-05-19T00:40:14;12.8;58.2
78516;SHT31;67815;51.990;5.688;2023-05-19T00:42:46;12.7;58.2
78516;SHT31;67815;51.990;5.688;2023-05-19T00:45:15;12.7;58.3
78516;SHT31;67815;51.990;5.688;2023-05-19T00:47:45;12.7;58.6
78516;SHT31;67815;51.990;5.688;2023-05-19T00:50:16;12.7;58.6
78516;SHT31;67815;51.990;5.688;2023-05-19T00:52:46;12.6;58.7
78516;SHT31;67815;51.990;5.688;2023-05-19T00:55:16;12.6;58.5
78516;SHT31;67815;51.990;5.688;2023-05-19T00:57:46;12.6;58.6
78516;SHT31;67815;51.990;5.688;2023-05-19T01:00:17;12.6;58.8
78516;SHT31;67815;51.990;5.688;2023-05-19T01:02:47;12.6;58.5
78516;SHT31;67815;51.990;5.688;2023-05-19T01:05:18;12.6;58.6
78516;SHT31;67815;51.990;5.688;2023-05-19T01:07:50;12.6;58.6
78516;SHT31;67815;51.990;5.688;2023-05-19T01:10:22;12.6;58.7
78516;SHT31;67815;51.990;5.688;2023-05-19T01:12:52;12.5;58.9
78516;SHT31;67815;51.990;5.688;2023-05-19T01:15:25;12.5;58.9
78516;SHT31;67815;51.990;5.688;2023-05-19T01:18:03;12.5;59.0
78516;SHT31;67815;51.990;5.688;2023-05-19T01:20:42;12.5;59.2
78516;SHT31;67815;51.990;5.688;2023-05-19T01:23:26;12.4;59.4
78516;SHT31;67815;51.990;5.688;2023-05-19T01:26:57;12.4;59.6
78516;SHT31;67815;51.990;5.688;2023-05-19T01:29:45;12.4;59.5
78516;SHT31;67815;51.990;5.688;2023-05-19T01:32:20;12.3;59.8
78516;SHT31;67815;51.990;5.688;2023-05-19T01:34:53;12.3;59.9
78516;SHT31;67815;51.990;5.688;2023-05-19T01:37:27;12.3;59.8
78516;SHT31;67815;51.990;5.688;2023-05-19T01:39:58;12.3;59.8
78516;SHT31;67815;51.990;5.688;2023-05-19T01:42:28;12.3;59.9
78516;SHT31;67815;51.990;5.688;2023-05-19T01:45:04;12.3;60.0
78516;SHT31;67815;51.990;5.688;2023-05-19T01:47:46;12.2;60.0
78516;SHT31;67815;51.990;5.688;2023-05-19T01:50:16;12.2;60.1
78516;SHT31;67815;51.990;5.688;2023-05-19T01:52:45;12.2;60.2
78516;SHT31;67815;51.990;5.688;2023-05-19T01:55:18;12.2;60.3
78516;SHT31;67815;51.990;5.688;2023-05-19T01:58:01;12.1;60.5
78516;SHT31;67815;51.990;5.688;2023-05-19T02:00:45;12.1;60.7
78516;SHT31;67815;51.990;5.688;2023-05-19T02:03:31;12.1;60.8
78516;SHT31;67815;51.990;5.688;2023-05-19T02:06:20;12.1;61.0
78516;SHT31;67815;51.990;5.688;2023-05-19T02:08:57;12.0;61.1
78516;SHT31;67815;51.990;5.688;2023-05-19T02:11:36;12.0;61.2
78516;SHT31;67815;51.990;5.688;2023-05-19T02:14:15;12.0;61.4
78516;SHT31;67815;51.990;5.688;2023-05-19T02:16:49;11.9;61.4
78516;SHT31;67815;51.990;5.688;2023-05-19T02:19:25;11.9;61.6
78516;SHT31;67815;51.990;5.688;2023-05-19T02:21:55;11.9;61.7
78516;SHT31;67815;51.990;5.688;2023-05-19T02:24:25;11.8;61.9
78516;SHT31;67815;51.990;5.688;2023-05-19T02:26:55;11.8;62.0
78516;SHT31;67815;51.990;5.688;2023-05-19T02:29:24;11.8;62.1
78516;SHT31;67815;51.990;5.688;2023-05-19T02:31:56;11.8;62.2
78516;SHT31;67815;51.990;5.688;2023-05-19T02:34:25;11.8;62.3
78516;SHT31;67815;51.990;5.688;2023-05-19T02:36:55;11.7;62.3
78516;SHT31;67815;51.990;5.688;2023-05-19T02:39:24;11.7;62.4
78516;SHT31;67815;51.990;5.688;2023-05-19T02:41:55;11.7;62.7
78516;SHT31;67815;51.990;5.688;2023-05-19T02:44:25;11.7;62.6
78516;SHT31;67815;51.990;5.688;2023-05-19T02:46:55;11.7;62.6
78516;SHT31;67815;51.990;5.688;2023-05-19T02:49:24;11.7;62.6
78516;SHT31;67815;51.990;5.688;2023-05-19T02:51:57;11.7;62.8
78516;SHT31;67815;51.990;5.688;2023-05-19T02:54:27;11.6;62.7
78516;SHT31;67815;51.990;5.688;2023-05-19T02:56:57;11.6;63.0
78516;SHT31;67815;51.990;5.688;2023-05-19T02:59:27;11.6;63.0
78516;SHT31;67815;51.990;5.688;2023-05-19T03:01:59;11.6;62.9
78516;SHT31;67815;51.990;5.688;2023-05-19T03:04:29;11.6;63.0
78516;SHT31;67815;51.990;5.688;2023-05-19T03:07:01;11.6;63.1
78516;SHT31;67815;51.990;5.688;2023-05-19T03:09:32;11.6;63.2
78516;SHT31;67815;51.990;5.688;2023-05-19T03:12:02;11.6;63.2
78516;SHT31;67815;51.990;5.688;2023-05-19T03:14:34;11.6;63.2
78516;SHT31;67815;51.990;5.688;2023-05-19T03:17:06;11.5;63.2
78516;SHT31;67815;51.990;5.688;2023-05-19T03:19:36;11.5;63.3
78516;SHT31;67815;51.990;5.688;2023-05-19T03:22:08;11.5;63.3
78516;SHT31;67815;51.990;5.688;2023-05-19T03:24:37;11.5;63.4
78516;SHT31;67815;51.990;5.688;2023-05-19T03:27:07;11.5;63.5
78516;SHT31;67815;51.990;5.688;2023-05-19T03:29:37;11.5;63.5
78516;SHT31;67815;51.990;5.688;2023-05-19T03:32:08;11.5;63.7
78516;SHT31;67815;51.990;5.688;2023-05-19T03:34:37;11.5;63.7
78516;SHT31;67815;51.990;5.688;2023-05-19T03:37:07;11.5;63.8
78516;SHT31;67815;51.990;5.688;2023-05-19T03:39:37;11.4;63.9
78516;SHT31;67815;51.990;5.688;2023-05-19T03:42:07;11.4;64.0
78516;SHT31;67815;51.990;5.688;2023-05-19T03:44:37;11.4;64.1
78516;SHT31;67815;51.990;5.688;2023-05-19T03:47:07;11.4;64.1
78516;SHT31;67815;51.990;5.688;2023-05-19T03:49:37;11.4;64.2
78516;SHT31;67815;51.990;5.688;2023-05-19T03:52:06;11.4;64.5
78516;SHT31;67815;51.990;5.688;2023-05-19T03:54:37;11.3;64.5
78516;SHT31;67815;51.990;5.688;2023-05-19T03:57:09;11.3;64.7
78516;SHT31;67815;51.990;5.688;2023-05-19T03:59:39;11.3;64.8
78516;SHT31;67815;51.990;5.688;2023-05-19T04:02:10;11.3;64.7
78516;SHT31;67815;51.990;5.688;2023-05-19T04:04:40;11.3;64.9
78516;SHT31;67815;51.990;5.688;2023-05-19T04:07:09;11.3;65.0
78516;SHT31;67815;51.990;5.688;2023-05-19T04:09:39;11.2;65.0
78516;SHT31;67815;51.990;5.688;2023-05-19T04:12:09;11.2;65.2
78516;SHT31;67815;51.990;5.688;2023-05-19T04:14:38;11.2;65.2
78516;SHT31;67815;51.990;5.688;2023-05-19T04:17:08;11.2;65.3
78516;SHT31;67815;51.990;5.688;2023-05-19T04:19:38;11.2;65.4
78516;SHT31;67815;51.990;5.688;2023-05-19T04:22:08;11.2;65.5
78516;SHT31;67815;51.990;5.688;2023-05-19T04:24:38;11.2;65.5
78516;SHT31;67815;51.990;5.688;2023-05-19T04:27:07;11.1;65.6
78516;SHT31;67815;51.990;5.688;2023-05-19T04:29:38;11.1;65.7
78516;SHT31;67815;51.990;5.688;2023-05-19T04:32:10;11.1;65.7
78516;SHT31;67815;51.990;5.688;2023-05-19T04:34:44;11.1;65.8
78516;SHT31;67815;51.990;5.688;2023-05-19T04:37:14;11.1;65.9
78516;SHT31;67815;51.990;5.688;2023-05-19T04:39:44;11.1;65.9
78516;SHT31;67815;51.990;5.688;2023-05-19T04:42:14;11.1;66.2
78516;SHT31;67815;51.990;5.688;2023-05-19T04:44:46;11.1;65.9
78516;SHT31;67815;51.990;5.688;2023-05-19T04:47:20;11.1;66.0
78516;SHT31;67815;51.990;5.688;2023-05-19T04:49:54;11.1;66.0
78516;SHT31;67815;51.990;5.688;2023-05-19T04:52:24;11.1;66.2
78516;SHT31;67815;51.990;5.688;2023-05-19T04:54:54;11.1;66.2
78516;SHT31;67815;51.990;5.688;2023-05-19T04:57:24;11.1;66.2
78516;SHT31;67815;51.990;5.688;2023-05-19T04:59:54;11.1;66.3
78516;SHT31;67815;51.990;5.688;2023-05-19T05:02:26;11.1;66.5
78516;SHT31;67815;51.990;5.688;2023-05-19T05:04:56;11.1;66.5
78516;SHT31;67815;51.990;5.688;2023-05-19T05:07:25;11.2;66.6
78516;SHT31;67815;51.990;5.688;2023-05-19T05:09:55;11.2;66.5
78516;SHT31;67815;51.990;5.688;2023-05-19T05:12:26;11.2;66.7
78516;SHT31;67815;51.990;5.688;2023-05-19T05:14:57;11.2;66.7
78516;SHT31;67815;51.990;5.688;2023-05-19T05:17:28;11.2;66.7
78516;SHT31;67815;51.990;5.688;2023-05-19T05:19:59;11.2;66.7
78516;SHT31;67815;51.990;5.688;2023-05-19T05:22:31;11.3;66.7
78516;SHT31;67815;51.990;5.688;2023-05-19T05:25:02;11.3;66.7
78516;SHT31;67815;51.990;5.688;2023-05-19T05:27:33;11.3;66.8
78516;SHT31;67815;51.990;5.688;2023-05-19T05:30:03;11.3;66.7
78516;SHT31;67815;51.990;5.688;2023-05-19T05:32:33;11.4;66.9
78516;SHT31;67815;51.990;5.688;2023-05-19T05:35:03;11.4;66.6
78516;SHT31;67815;51.990;5.688;2023-05-19T05:37:33;11.4;66.9
78516;SHT31;67815;51.990;5.688;2023-05-19T05:40:04;11.4;66.9
78516;SHT31;67815;51.990;5.688;2023-05-19T05:42:35;11.4;67.0
78516;SHT31;67815;51.990;5.688;2023-05-19T05:45:05;11.4;67.0
78516;SHT31;67815;51.990;5.688;2023-05-19T05:47:38;11.5;66.9
78516;SHT31;67815;51.990;5.688;2023-05-19T05:50:11;11.5;66.8
78516;SHT31;67815;51.990;5.688;2023-05-19T05:52:40;11.5;66.8
78516;SHT31;67815;51.990;5.688;2023-05-19T05:55:14;11.6;66.7
78516;SHT31;67815;51.990;5.688;2023-05-19T05:57:45;11.6;66.4
78516;SHT31;67815;51.990;5.688;2023-05-19T06:00:20;11.7;66.4
78516;SHT31;67815;51.990;5.688;2023-05-19T06:02:50;11.7;66.1
78516;SHT31;67815;51.990;5.688;2023-05-19T06:05:20;11.7;66.5
78516;SHT31;67815;51.990;5.688;2023-05-19T06:07:51;11.8;66.6
78516;SHT31;67815;51.990;5.688;2023-05-19T06:10:22;11.8;66.1
78516;SHT31;67815;51.990;5.688;2023-05-19T06:12:51;11.9;66.0
78516;SHT31;67815;51.990;5.688;2023-05-19T06:15:22;11.9;65.7
78516;SHT31;67815;51.990;5.688;2023-05-19T06:17:51;12.0;65.9
78516;SHT31;67815;51.990;5.688;2023-05-19T06:20:22;12.1;65.6
78516;SHT31;67815;51.990;5.688;2023-05-19T06:22:51;12.1;65.4
78516;SHT31;67815;51.990;5.688;2023-05-19T06:25:21;12.2;65.5
78516;SHT31;67815;51.990;5.688;2023-05-19T06:27:51;12.2;65.4
78516;SHT31;67815;51.990;5.688;2023-05-19T06:30:21;12.3;64.8
78516;SHT31;67815;51.990;5.688;2023-05-19T06:32:50;12.3;63.7
78516;SHT31;67815;51.990;5.688;2023-05-19T06:35:20;12.4;63.0
78516;SHT31;67815;51.990;5.688;2023-05-19T06:37:49;12.5;62.7
78516;SHT31;67815;51.990;5.688;2023-05-19T06:40:20;12.5;62.6
78516;SHT31;67815;51.990;5.688;2023-05-19T06:42:49;12.6;63.3
78516;SHT31;67815;51.990;5.688;2023-05-19T06:45:19;12.7;63.2
78516;SHT31;67815;51.990;5.688;2023-05-19T06:47:49;12.7;63.3
78516;SHT31;67815;51.990;5.688;2023-05-19T06:50:19;12.8;62.8
78516;SHT31;67815;51.990;5.688;2023-05-19T06:52:49;12.9;59.9
78516;SHT31;67815;51.990;5.688;2023-05-19T06:55:19;12.9;58.9
78516;SHT31;67815;51.990;5.688;2023-05-19T06:57:48;13.0;60.7
78516;SHT31;67815;51.990;5.688;2023-05-19T07:00:19;13.1;58.7
78516;SHT31;67815;51.990;5.688;2023-05-19T07:02:48;13.1;59.5
78516;SHT31;67815;51.990;5.688;2023-05-19T07:05:19;13.2;58.0
78516;SHT31;67815;51.990;5.688;2023-05-19T07:07:48;13.3;59.2
78516;SHT31;67815;51.990;5.688;2023-05-19T07:10:18;13.4;57.9
78516;SHT31;67815;51.990;5.688;2023-05-19T07:12:48;13.4;58.4
78516;SHT31;67815;51.990;5.688;2023-05-19T07:15:18;13.5;60.2
78516;SHT31;67815;51.990;5.688;2023-05-19T07:17:47;13.6;56.5
78516;SHT31;67815;51.990;5.688;2023-05-19T07:20:17;13.7;57.7
78516;SHT31;67815;51.990;5.688;2023-05-19T07:22:47;13.7;57.7
78516;SHT31;67815;51.990;5.688;2023-05-19T07:25:17;13.8;57.1
78516;SHT31;67815;51.990;5.688;2023-05-19T07:27:47;13.9;56.9
78516;SHT31;67815;51.990;5.688;2023-05-19T07:30:17;14.0;54.9
78516;SHT31;67815;51.990;5.688;2023-05-19T07:32:47;14.1;56.1
78516;SHT31;67815;51.990;5.688;2023-05-19T07:35:19;14.1;55.2
78516;SHT31;67815;51.990;5.688;2023-05-19T07:37:49;14.2;53.9
78516;SHT31;67815;51.990;5.688;2023-05-19T07:40:19;14.3;53.2
78516;SHT31;67815;51.990;5.688;2023-05-19T07:42:50;14.4;55.0
78516;SHT31;67815;51.990;5.688;2023-05-19T07:45:20;14.4;54.6
78516;SHT31;67815;51.990;5.688;2023-05-19T07:47:51;14.5;51.8
78516;SHT31;67815;51.990;5.688;2023-05-19T07:50:21;14.5;53.7
78516;SHT31;67815;51.990;5.688;2023-05-19T07:52:53;14.6;52.9
78516;SHT31;67815;51.990;5.688;2023-05-19T07:55:23;14.7;52.8
78516;SHT31;67815;51.990;5.688;2023-05-19T07:57:53;14.7;53.2
78516;SHT31;67815;51.990;5.688;2023-05-19T08:00:24;14.8;51.6
78516;SHT31;67815;51.990;5.688;2023-05-19T08:02:54;14.9;52.0
78516;SHT31;67815;51.990;5.688;2023-05-19T08:05:25;14.9;51.1
78516;SHT31;67815;51.990;5.688;2023-05-19T08:07:56;15.0;51.5
78516;SHT31;67815;51.990;5.688;2023-05-19T08:10:25;15.1;50.6
78516;SHT31;67815;51.990;5.688;2023-05-19T08:12:55;15.2;50.9
78516;SHT31;67815;51.990;5.688;2023-05-19T08:15:27;15.3;51.3
78516;SHT31;67815;51.990;5.688;2023-05-19T08:17:56;15.4;49.7
78516;SHT31;67815;51.990;5.688;2023-05-19T08:20:26;15.5;50.3
78516;SHT31;67815;51.990;5.688;2023-05-19T08:22:55;15.5;50.2
78516;SHT31;67815;51.990;5.688;2023-05-19T08:25:25;15.6;49.2
78516;SHT31;67815;51.990;5.688;2023-05-19T08:27:55;15.7;50.3
78516;SHT31;67815;51.990;5.688;2023-05-19T08:30:25;15.8;50.1
78516;SHT31;67815;51.990;5.688;2023-05-19T08:32:54;15.9;49.0
78516;SHT31;67815;51.990;5.688;2023-05-19T08:35:24;15.9;49.1
78516;SHT31;67815;51.990;5.688;2023-05-19T08:37:54;16.0;46.2
78516;SHT31;67815;51.990;5.688;2023-05-19T08:40:24;16.0;46.3
78516;SHT31;67815;51.990;5.688;2023-05-19T08:42:57;16.1;47.1
78516;SHT31;67815;51.990;5.688;2023-05-19T08:45:28;16.2;47.6
78516;SHT31;67815;51.990;5.688;2023-05-19T08:48:02;16.2;47.0
78516;SHT31;67815;51.990;5.688;2023-05-19T08:50:37;16.3;44.7
78516;SHT31;67815;51.990;5.688;2023-05-19T08:53:12;16.4;46.6
78516;SHT31;67815;51.990;5.688;2023-05-19T08:55:48;16.4;44.4
78516;SHT31;67815;51.990;5.688;2023-05-19T08:58:20;16.5;43.8
78516;SHT31;67815;51.990;5.688;2023-05-19T09:00:50;16.5;43.6
78516;SHT31;67815;51.990;5.688;2023-05-19T09:03:23;16.6;43.2
78516;SHT31;67815;51.990;5.688;2023-05-19T09:05:54;16.6;44.4
78516;SHT31;67815;51.990;5.688;2023-05-19T09:08:24;16.7;43.0
78516;SHT31;67815;51.990;5.688;2023-05-19T09:10:54;16.7;43.8
78516;SHT31;67815;51.990;5.688;2023-05-19T09:13:23;16.8;43.0
78516;SHT31;67815;51.990;5.688;2023-05-19T09:15:55;16.8;42.3
78516;SHT31;67815;51.990;5.688;2023-05-19T09:18:26;16.9;44.6
78516;SHT31;67815;51.990;5.688;2023-05-19T09:20:59;16.9;41.4
78516;SHT31;67815;51.990;5.688;2023-05-19T09:23:31;16.9;43.4
78516;SHT31;67815;51.990;5.688;2023-05-19T09:26:03;16.9;43.7
78516;SHT31;67815;51.990;5.688;2023-05-19T09:28:35;17.0;43.6
78516;SHT31;67815;51.990;5.688;2023-05-19T09:31:07;17.0;43.4
78516;SHT31;67815;51.990;5.688;2023-05-19T09:33:38;17.0;42.7
78516;SHT31;67815;51.990;5.688;2023-05-19T09:36:09;17.0;42.5
78516;SHT31;67815;51.990;5.688;2023-05-19T09:38:39;17.0;42.6
78516;SHT31;67815;51.990;5.688;2023-05-19T09:41:09;17.0;44.0
78516;SHT31;67815;51.990;5.688;2023-05-19T09:43:39;17.0;44.3
78516;SHT31;67815;51.990;5.688;2023-05-19T09:46:09;17.1;42.3
78516;SHT31;67815;51.990;5.688;2023-05-19T09:48:39;17.1;40.6
78516;SHT31;67815;51.990;5.688;2023-05-19T09:51:08;17.1;41.5
78516;SHT31;67815;51.990;5.688;2023-05-19T09:53:38;17.2;41.6
78516;SHT31;67815;51.990;5.688;2023-05-19T09:56:08;17.2;40.2
78516;SHT31;67815;51.990;5.688;2023-05-19T09:58:41;17.2;40.3
78516;SHT31;67815;51.990;5.688;2023-05-19T10:01:11;17.3;41.3
78516;SHT31;67815;51.990;5.688;2023-05-19T10:03:42;17.3;41.7
78516;SHT31;67815;51.990;5.688;2023-05-19T10:06:14;17.3;41.2
78516;SHT31;67815;51.990;5.688;2023-05-19T10:08:47;17.3;42.1
78516;SHT31;67815;51.990;5.688;2023-05-19T10:11:19;17.4;41.0
78516;SHT31;67815;51.990;5.688;2023-05-19T10:13:53;17.4;41.5
78516;SHT31;67815;51.990;5.688;2023-05-19T10:16:25;17.4;40.4
78516;SHT31;67815;51.990;5.688;2023-05-19T10:19:00;17.4;41.9
78516;SHT31;67815;51.990;5.688;2023-05-19T10:21:31;17.5;43.5
78516;SHT31;67815;51.990;5.688;2023-05-19T10:24:01;17.5;41.3
78516;SHT31;67815;51.990;5.688;2023-05-19T10:26:30;17.5;42.3
78516;SHT31;67815;51.990;5.688;2023-05-19T10:29:03;17.6;40.4
78516;SHT31;67815;51.990;5.688;2023-05-19T10:31:35;17.6;42.1
78516;SHT31;67815;51.990;5.688;2023-05-19T10:34:22;17.7;43.2
78516;SHT31;67815;51.990;5.688;2023-05-19T10:37:07;17.8;41.8
78516;SHT31;67815;51.990;5.688;2023-05-19T10:39:41;17.8;41.4
78516;SHT31;67815;51.990;5.688;2023-05-19T10:42:16;17.9;41.8
78516;SHT31;67815;51.990;5.688;2023-05-19T10:45:01;17.9;40.8
78516;SHT31;67815;51.990;5.688;2023-05-19T10:47:32;18.0;39.3
78516;SHT31;67815;51.990;5.688;2023-05-19T10:50:03;18.0;40.0
78516;SHT31;67815;51.990;5.688;2023-05-19T10:52:37;18.1;40.7
78516;SHT31;67815;51.990;5.688;2023-05-19T10:55:09;18.1;42.5
78516;SHT31;67815;51.990;5.688;2023-05-19T10:57:54;18.1;41.7
78516;SHT31;67815;51.990;5.688;2023-05-19T11:00:29;18.2;41.5
78516;SHT31;67815;51.990;5.688;2023-05-19T11:03:13;18.3;41.6
78516;SHT31;67815;51.990;5.688;2023-05-19T11:05:44;18.3;42.0
78516;SHT31;67815;51.990;5.688;2023-05-19T11:08:32;18.4;40.9
78516;SHT31;67815;51.990;5.688;2023-05-19T11:11:13;18.5;41.1
78516;SHT31;67815;51.990;5.688;2023-05-19T11:13:46;18.6;38.8
78516;SHT31;67815;51.990;5.688;2023-05-19T11:16:17;18.7;40.0
78516;SHT31;67815;51.990;5.688;2023-05-19T11:18:55;18.8;38.2
78516;SHT31;67815;51.990;5.688;2023-05-19T11:21:43;18.9;37.7
78516;SHT31;67815;51.990;5.688;2023-05-19T11:24:37;18.9;37.4
78516;SHT31;67815;51.990;5.688;2023-05-19T11:27:19;19.0;36.6
78516;SHT31;67815;51.990;5.688;2023-05-19T11:29:49;19.0;36.5
78516;SHT31;67815;51.990;5.688;2023-05-19T11:32:24;19.0;36.1
78516;SHT31;67815;51.990;5.688;2023-05-19T11:34:54;19.0;41.1
78516;SHT31;67815;51.990;5.688;2023-05-19T11:37:25;19.1;39.4
78516;SHT31;67815;51.990;5.688;2023-05-19T11:39:59;19.1;38.6
78516;SHT31;67815;51.990;5.688;2023-05-19T11:42:31;19.2;37.4
78516;SHT31;67815;51.990;5.688;2023-05-19T11:45:03;19.2;38.0
78516;SHT31;67815;51.990;5.688;2023-05-19T11:47:33;19.3;39.1
78516;SHT31;67815;51.990;5.688;2023-05-19T11:50:05;19.3;37.2
78516;SHT31;67815;51.990;5.688;2023-05-19T11:52:36;19.4;37.6
78516;SHT31;67815;51.990;5.688;2023-05-19T11:55:06;19.4;35.7
78516;SHT31;67815;51.990;5.688;2023-05-19T11:57:41;19.5;36.5
78516;SHT31;67815;51.990;5.688;2023-05-19T12:00:12;19.5;37.0
78516;SHT31;67815;51.990;5.688;2023-05-19T12:02:44;19.5;35.4
78516;SHT31;67815;51.990;5.688;2023-05-19T12:05:20;19.6;34.1
78516;SHT31;67815;51.990;5.688;2023-05-19T12:07:51;19.6;35.6
78516;SHT31;67815;51.990;5.688;2023-05-19T12:10:23;19.6;36.4
78516;SHT31;67815;51.990;5.688;2023-05-19T12:12:54;19.7;35.0
78516;SHT31;67815;51.990;5.688;2023-05-19T12:15:25;19.7;34.7
78516;SHT31;67815;51.990;5.688;2023-05-19T12:17:59;19.8;34.4
78516;SHT31;67815;51.990;5.688;2023-05-19T12:20:30;19.8;35.2
78516;SHT31;67815;51.990;5.688;2023-05-19T12:23:02;19.8;34.8
78516;SHT31;67815;51.990;5.688;2023-05-19T12:25:33;19.8;33.7
78516;SHT31;67815;51.990;5.688;2023-05-19T12:28:03;19.9;34.0
78516;SHT31;67815;51.990;5.688;2023-05-19T12:30:33;19.9;33.6
78516;SHT31;67815;51.990;5.688;2023-05-19T12:33:03;19.9;34.2
78516;SHT31;67815;51.990;5.688;2023-05-19T12:35:38;19.9;35.1
78516;SHT31;67815;51.990;5.688;2023-05-19T12:38:08;20.0;34.7
78516;SHT31;67815;51.990;5.688;2023-05-19T12:40:40;20.0;36.2
78516;SHT31;67815;51.990;5.688;2023-05-19T12:43:20;20.1;37.1
78516;SHT31;67815;51.990;5.688;2023-05-19T12:45:50;20.1;35.2
78516;SHT31;67815;51.990;5.688;2023-05-19T12:48:22;20.2;34.8
78516;SHT31;67815;51.990;5.688;2023-05-19T12:50:52;20.2;36.6
78516;SHT31;67815;51.990;5.688;2023-05-19T12:53:25;20.3;35.8
78516;SHT31;67815;51.990;5.688;2023-05-19T12:55:55;20.3;32.8
78516;SHT31;67815;51.990;5.688;2023-05-19T12:58:25;20.4;34.7
78516;SHT31;67815;51.990;5.688;2023-05-19T13:00:58;20.4;34.6
78516;SHT31;67815;51.990;5.688;2023-05-19T13:03:28;20.5;33.4
78516;SHT31;67815;51.990;5.688;2023-05-19T13:05:57;20.5;35.4
78516;SHT31;67815;51.990;5.688;2023-05-19T13:08:27;20.6;34.8
78516;SHT31;67815;51.990;5.688;2023-05-19T13:10:57;20.6;36.1
78516;SHT31;67815;51.990;5.688;2023-05-19T13:13:27;20.7;35.7
78516;SHT31;67815;51.990;5.688;2023-05-19T13:15:58;20.8;34.9
78516;SHT31;67815;51.990;5.688;2023-05-19T13:18:28;20.8;33.2
78516;SHT31;67815;51.990;5.688;2023-05-19T13:20:58;20.8;33.2
78516;SHT31;67815;51.990;5.688;2023-05-19T13:23:28;20.9;33.2
78516;SHT31;67815;51.990;5.688;2023-05-19T13:25:58;20.9;32.7
78516;SHT31;67815;51.990;5.688;2023-05-19T13:28:27;20.9;33.3
78516;SHT31;67815;51.990;5.688;2023-05-19T13:30:57;20.9;35.7
78516;SHT31;67815;51.990;5.688;2023-05-19T13:33:27;20.9;33.0
78516;SHT31;67815;51.990;5.688;2023-05-19T13:35:59;20.9;32.6
78516;SHT31;67815;51.990;5.688;2023-05-19T13:38:29;20.9;33.1
78516;SHT31;67815;51.990;5.688;2023-05-19T13:40:59;21.0;33.2
78516;SHT31;67815;51.990;5.688;2023-05-19T13:43:28;21.0;32.4
78516;SHT31;67815;51.990;5.688;2023-05-19T13:45:58;21.0;34.8
78516;SHT31;67815;51.990;5.688;2023-05-19T13:48:27;21.1;35.2
78516;SHT31;67815;51.990;5.688;2023-05-19T13:50:57;21.1;35.1
78516;SHT31;67815;51.990;5.688;2023-05-19T13:53:27;21.2;33.5
78516;SHT31;67815;51.990;5.688;2023-05-19T13:55:59;21.2;34.6
78516;SHT31;67815;51.990;5.688;2023-05-19T13:58:29;21.2;34.2
78516;SHT31;67815;51.990;5.688;2023-05-19T14:00:59;21.3;33.8
78516;SHT31;67815;51.990;5.688;2023-05-19T14:03:29;21.3;35.7
78516;SHT31;67815;51.990;5.688;2023-05-19T14:05:58;21.3;34.1
78516;SHT31;67815;51.990;5.688;2023-05-19T14:08:28;21.4;34.9
78516;SHT31;67815;51.990;5.688;2023-05-19T14:10:57;21.4;35.3
78516;SHT31;67815;51.990;5.688;2023-05-19T14:13:27;21.4;33.3
78516;SHT31;67815;51.990;5.688;2023-05-19T14:15:58;21.4;33.5
78516;SHT31;67815;51.990;5.688;2023-05-19T14:18:28;21.4;35.3
78516;SHT31;67815;51.990;5.688;2023-05-19T14:20:58;21.4;36.1
78516;SHT31;67815;51.990;5.688;2023-05-19T14:23:30;21.4;33.2
78516;SHT31;67815;51.990;5.688;2023-05-19T14:26:00;21.4;33.7
78516;SHT31;67815;51.990;5.688;2023-05-19T14:28:30;21.5;34.7
78516;SHT31;67815;51.990;5.688;2023-05-19T14:30:59;21.5;34.8
78516;SHT31;67815;51.990;5.688;2023-05-19T14:33:29;21.5;33.5
78516;SHT31;67815;51.990;5.688;2023-05-19T14:35:59;21.5;33.7
78516;SHT31;67815;51.990;5.688;2023-05-19T14:38:28;21.6;34.7
78516;SHT31;67815;51.990;5.688;2023-05-19T14:40:58;21.6;33.5
78516;SHT31;67815;51.990;5.688;2023-05-19T14:43:28;21.6;35.3
78516;SHT31;67815;51.990;5.688;2023-05-19T14:45:58;21.6;33.6
78516;SHT31;67815;51.990;5.688;2023-05-19T14:48:27;21.7;34.8
78516;SHT31;67815;51.990;5.688;2023-05-19T14:50:57;21.7;34.2
78516;SHT31;67815;51.990;5.688;2023-05-19T14:53:27;21.8;35.4
78516;SHT31;67815;51.990;5.688;2023-05-19T14:55:57;21.8;33.1
78516;SHT31;67815;51.990;5.688;2023-05-19T14:58:27;21.9;34.7
78516;SHT31;67815;51.990;5.688;2023-05-19T15:00:58;21.9;33.3
78516;SHT31;67815;51.990;5.688;2023-05-19T15:03:29;21.9;34.2
78516;SHT31;67815;51.990;5.688;2023-05-19T15:06:00;21.9;34.8
78516;SHT31;67815;51.990;5.688;2023-05-19T15:08:30;21.9;33.5
78516;SHT31;67815;51.990;5.688;2023-05-19T15:11:00;21.9;33.4
78516;SHT31;67815;51.990;5.688;2023-05-19T15:13:29;21.9;33.9
78516;SHT31;67815;51.990;5.688;2023-05-19T15:15:59;21.9;34.0
78516;SHT31;67815;51.990;5.688;2023-05-19T15:18:28;21.9;33.2
78516;SHT31;67815;51.990;5.688;2023-05-19T15:21:02;21.9;33.0
78516;SHT31;67815;51.990;5.688;2023-05-19T15:23:31;22.0;32.7
78516;SHT31;67815;51.990;5.688;2023-05-19T15:26:01;22.0;33.3
78516;SHT31;67815;51.990;5.688;2023-05-19T15:28:31;22.0;34.6
78516;SHT31;67815;51.990;5.688;2023-05-19T15:31:01;22.1;35.0
78516;SHT31;67815;51.990;5.688;2023-05-19T15:33:31;22.2;32.8
78516;SHT31;67815;51.990;5.688;2023-05-19T15:36:00;22.2;34.0
78516;SHT31;67815;51.990;5.688;2023-05-19T15:38:34;22.3;34.4
78516;SHT31;67815;51.990;5.688;2023-05-19T15:41:07;22.3;32.5
78516;SHT31;67815;51.990;5.688;2023-05-19T15:43:37;22.3;32.4
78516;SHT31;67815;51.990;5.688;2023-05-19T15:46:10;22.3;32.2
78516;SHT31;67815;51.990;5.688;2023-05-19T15:48:39;22.3;32.4
78516;SHT31;67815;51.990;5.688;2023-05-19T15:51:09;22.3;32.3
78516;SHT31;67815;51.990;5.688;2023-05-19T15:53:39;22.2;32.2
78516;SHT31;67815;51.990;5.688;2023-05-19T15:56:09;22.2;30.9
78516;SHT31;67815;51.990;5.688;2023-05-19T15:58:39;22.2;32.3
78516;SHT31;67815;51.990;5.688;2023-05-19T16:01:10;22.1;31.7
78516;SHT31;67815;51.990;5.688;2023-05-19T16:03:40;22.1;31.9
78516;SHT31;67815;51.990;5.688;2023-05-19T16:06:10;22.1;33.4
78516;SHT31;67815;51.990;5.688;2023-05-19T16:08:39;22.1;34.0
78516;SHT31;67815;51.990;5.688;2023-05-19T16:11:09;22.0;33.0
78516;SHT31;67815;51.990;5.688;2023-05-19T16:13:39;22.0;33.6
78516;SHT31;67815;51.990;5.688;2023-05-19T16:16:09;22.0;33.1
78516;SHT31;67815;51.990;5.688;2023-05-19T16:18:38;22.0;32.7
78516;SHT31;67815;51.990;5.688;2023-05-19T16:21:10;22.0;35.0
78516;SHT31;67815;51.990;5.688;2023-05-19T16:23:40;22.0;33.0
78516;SHT31;67815;51.990;5.688;2023-05-19T16:26:10;22.0;34.8
78516;SHT31;67815;51.990;5.688;2023-05-19T16:28:39;22.0;33.5